Time;durP1;ratioP1;P1;durP2;ratioP2;P2;SDS_P1;SDS_P2;PMS_P1;PMS_P2;Temp;Humidity;BMP_temperature;BMP_pressure;BME280_temperature;BME280_humidity;BME280_pressure;Samples;Min_cycle;Max_cycle;Signal;HPM_P1;HPM_P2
2022/01/22 00:00:59;;;;;;;7.95;3.05;;;0.90;99.90;;;;;;5074704;28;20383;-48
2022/01/22 00:03:26;;;;;;;10.45;5.03;;;1.00;99.90;;;;;;5080952;28;20294;-49
2022/01/22 00:05:54;;;;;;;5.78;3.13;;;1.00;99.90;;;;;;5080985;28;20202;-49
2022/01/22 00:08:22;;;;;;;4.63;3.05;;;0.90;99.90;;;;;;5079589;28;20199;-50
2022/01/22 00:10:51;;;;;;;7.57;4.13;;;0.90;99.90;;;;;;5060327;28;20254;-48
2022/01/22 00:15:48;;;;;;;6.97;3.85;;;0.90;99.90;;;;;;5060347;28;20194;-48
2022/01/22 00:18:16;;;;;;;4.35;4.03;;;0.90;99.90;;;;;;5059966;28;20198;-50
2022/01/22 00:20:44;;;;;;;10.45;4.97;;;0.90;99.90;;;;;;5060101;28;20227;-50
2022/01/22 00:23:11;;;;;;;8.65;4.80;;;0.90;99.90;;;;;;5059951;28;20195;-53
2022/01/22 00:25:38;;;;;;;8.02;4.30;;;0.90;99.90;;;;;;5060239;28;20498;-48
2022/01/22 00:28:05;;;;;;;8.77;4.57;;;1.00;99.90;;;;;;5059815;28;20226;-48
2022/01/22 00:30:33;;;;;;;8.48;4.88;;;1.00;99.90;;;;;;5059808;28;20552;-48
2022/01/22 00:33:00;;;;;;;7.28;4.50;;;0.90;99.90;;;;;;5062670;28;20203;-49
2022/01/22 00:35:27;;;;;;;6.90;5.95;;;1.00;99.90;;;;;;5060548;28;20261;-48
2022/01/22 00:37:54;;;;;;;9.65;5.32;;;0.90;99.90;;;;;;5059997;28;20200;-51
2022/01/22 00:40:22;;;;;;;14.23;5.75;;;1.00;99.90;;;;;;5059563;28;20269;-48
2022/01/22 00:42:50;;;;;;;7.75;4.97;;;1.00;99.90;;;;;;5060013;28;20242;-48
2022/01/22 00:45:19;;;;;;;14.15;7.32;;;1.00;99.90;;;;;;5060077;28;20215;-50
2022/01/22 00:47:48;;;;;;;6.10;4.90;;;0.90;99.90;;;;;;5059155;28;20387;-51
2022/01/22 00:50:18;;;;;;;7.75;5.55;;;1.00;99.90;;;;;;5059651;28;20510;-49
2022/01/22 00:52:46;;;;;;;8.52;5.82;;;1.00;99.90;;;;;;5059733;28;20200;-53
2022/01/22 00:55:14;;;;;;;14.25;7.40;;;1.00;99.90;;;;;;5059875;28;20227;-51
2022/01/22 00:57:42;;;;;;;11.95;7.20;;;1.00;99.90;;;;;;5059063;28;20208;-50
2022/01/22 01:00:13;;;;;;;15.80;6.10;;;1.00;99.90;;;;;;5059816;28;20227;-47
2022/01/22 01:02:41;;;;;;;13.13;6.82;;;1.00;99.90;;;;;;5059341;28;20414;-49
2022/01/22 01:05:10;;;;;;;8.93;6.38;;;1.10;99.90;;;;;;5059826;28;20283;-49
2022/01/22 01:07:38;;;;;;;11.50;7.53;;;1.00;99.90;;;;;;5059351;28;20525;-49
2022/01/22 01:10:08;;;;;;;10.70;6.63;;;1.00;99.90;;;;;;5062605;28;20199;-50
2022/01/22 01:12:38;;;;;;;6.57;5.22;;;1.00;99.90;;;;;;5063823;28;20203;-49
2022/01/22 01:32:10;;;;;;;7.20;4.05;;;1.10;99.90;;;;;;5063390;28;20199;-49
2022/01/22 01:34:19;;;;;;;4.30;3.83;;;1.10;99.90;;;;;;5068319;28;20219;-51
2022/01/22 01:36:47;;;;;;;4.30;3.50;;;1.20;99.90;;;;;;5065701;28;20302;-50
2022/01/22 01:39:21;;;;;;;4.90;4.47;;;1.10;99.90;;;;;;5063780;28;20203;-50
2022/01/22 01:42:00;;;;;;;7.22;4.60;;;1.10;99.90;;;;;;5063301;28;20242;-49
2022/01/22 01:44:28;;;;;;;4.75;4.28;;;1.10;99.90;;;;;;5063195;28;20218;-51
2022/01/22 01:46:59;;;;;;;5.60;4.25;;;1.20;99.90;;;;;;5063109;28;20223;-47
2022/01/22 01:49:28;;;;;;;6.63;4.80;;;1.20;99.90;;;;;;5063330;28;20408;-51
2022/01/22 01:51:59;;;;;;;4.80;3.90;;;1.20;99.90;;;;;;5063337;28;20199;-53
2022/01/22 01:59:45;;;;;;;4.50;4.10;;;1.20;99.90;;;;;;5061975;28;20219;-51
2022/01/22 02:02:12;;;;;;;7.82;4.63;;;1.20;99.90;;;;;;5062500;28;20191;-49
2022/01/22 02:04:41;;;;;;;6.80;5.32;;;1.30;99.90;;;;;;5062219;28;20212;-50
2022/01/22 02:07:10;;;;;;;6.43;4.97;;;1.20;99.90;;;;;;5062186;28;20478;-54
2022/01/22 02:09:38;;;;;;;6.03;4.55;;;1.20;99.90;;;;;;5062465;28;20397;-51
2022/01/22 02:12:39;;;;;;;4.30;3.90;;;1.20;99.90;;;;;;5061951;28;20222;-52
2022/01/22 02:23:35;;;;;;;7.03;5.20;;;1.30;99.90;;;;;;5062110;28;20431;-52
2022/01/22 02:26:05;;;;;;;9.90;4.53;;;1.30;99.90;;;;;;5062149;28;20470;-50
2022/01/22 02:28:33;;;;;;;8.82;5.90;;;1.20;99.90;;;;;;5061770;28;20236;-52
2022/01/22 02:33:52;;;;;;;7.47;5.65;;;1.20;99.90;;;;;;5062108;28;20553;-51
2022/01/22 02:36:26;;;;;;;5.75;4.93;;;1.30;99.90;;;;;;5063844;28;20275;-49
2022/01/22 02:39:01;;;;;;;4.72;4.30;;;1.30;99.90;;;;;;5063512;28;20393;-50
2022/01/22 02:41:29;;;;;;;6.50;5.00;;;1.30;99.90;;;;;;5062717;28;20235;-53
2022/01/22 02:43:56;;;;;;;5.25;4.65;;;1.30;99.90;;;;;;5063447;28;20261;-50
2022/01/22 02:46:26;;;;;;;6.65;5.40;;;1.20;99.90;;;;;;5064653;28;20436;-54
2022/01/22 02:48:56;;;;;;;6.22;5.55;;;1.30;99.90;;;;;;5062764;28;20245;-55
2022/01/22 02:51:25;;;;;;;6.10;5.40;;;1.20;99.90;;;;;;5063739;28;20196;-54
2022/01/22 02:53:55;;;;;;;7.07;5.43;;;1.30;99.90;;;;;;5068999;28;20220;-53
2022/01/22 02:56:24;;;;;;;11.00;6.32;;;1.30;99.90;;;;;;5067229;28;20200;-54
2022/01/22 02:58:53;;;;;;;7.32;6.63;;;1.30;99.90;;;;;;5066085;28;20245;-50
2022/01/22 03:01:21;;;;;;;8.55;5.97;;;1.30;99.90;;;;;;5062946;28;20258;-52
2022/01/22 03:03:49;;;;;;;9.88;6.10;;;1.30;99.90;;;;;;5061226;28;20285;-50
2022/01/22 03:06:16;;;;;;;7.22;6.15;;;1.30;99.90;;;;;;5061354;28;20204;-52
2022/01/22 03:08:45;;;;;;;6.85;5.95;;;1.30;99.90;;;;;;5061242;28;20242;-49
2022/01/22 03:11:19;;;;;;;9.35;6.72;;;1.30;99.90;;;;;;5061322;28;20233;-49
2022/01/22 03:16:46;;;;;;;7.10;6.25;;;1.40;99.90;;;;;;5061279;28;20199;-53
2022/01/22 03:19:30;;;;;;;6.20;5.53;;;1.40;99.90;;;;;;5063875;28;20571;-53
2022/01/22 03:22:13;;;;;;;7.57;6.20;;;1.30;99.90;;;;;;5063878;28;20195;-51
2022/01/22 03:27:28;;;;;;;7.50;5.75;;;1.30;99.90;;;;;;5063080;28;20195;-49
2022/01/22 03:29:56;;;;;;;5.60;4.35;;;1.40;99.90;;;;;;5062419;28;20187;-49
2022/01/22 03:32:28;;;;;;;14.93;5.85;;;1.40;99.90;;;;;;5060546;28;20269;-51
2022/01/22 03:35:08;;;;;;;7.60;5.60;;;1.30;99.90;;;;;;5061132;28;20223;-51
2022/01/22 03:37:36;;;;;;;12.05;5.85;;;1.30;99.90;;;;;;5060349;28;20421;-51
2022/01/22 03:40:05;;;;;;;6.80;5.07;;;1.30;99.90;;;;;;5060983;28;20425;-53
2022/01/22 03:42:34;;;;;;;4.88;4.32;;;1.30;99.90;;;;;;5060464;28;20206;-51
2022/01/22 03:45:04;;;;;;;7.60;4.75;;;1.30;99.90;;;;;;5060863;28;20216;-50
2022/01/22 03:47:31;;;;;;;4.90;4.40;;;1.30;99.90;;;;;;5060156;28;20203;-49
2022/01/22 03:49:59;;;;;;;14.55;5.40;;;1.30;99.90;;;;;;5060529;28;20283;-48
2022/01/22 03:52:26;;;;;;;5.75;5.25;;;1.30;99.90;;;;;;5060778;28;20208;-50
2022/01/22 03:54:53;;;;;;;7.50;5.30;;;1.30;99.90;;;;;;5060738;28;20431;-51
2022/01/22 03:57:23;;;;;;;5.97;5.13;;;1.30;99.90;;;;;;5061009;28;20238;-55
2022/01/22 03:59:52;;;;;;;4.88;4.35;;;1.50;99.90;;;;;;5060399;28;20199;-53
2022/01/22 04:04:51;;;;;;;9.63;6.05;;;1.30;99.90;;;;;;5062315;28;20215;-52
2022/01/22 04:09:46;;;;;;;5.80;5.28;;;1.30;99.90;;;;;;5061220;28;20399;-51
2022/01/22 04:12:18;;;;;;;5.82;4.97;;;1.30;99.90;;;;;;5064900;28;20195;-49
2022/01/22 04:14:52;;;;;;;7.18;5.38;;;1.30;99.90;;;;;;5063267;28;20549;-54
2022/01/22 04:24:48;;;;;;;4.95;4.13;;;1.30;99.90;;;;;;5060197;28;20307;-54
2022/01/22 04:25:46;;;;;;;7.65;5.40;;;1.20;99.90;;;;;;5060844;28;20211;-54
2022/01/22 04:28:13;;;;;;;5.40;4.88;;;1.20;99.90;;;;;;5061007;28;20368;-50
2022/01/22 04:30:41;;;;;;;7.00;6.25;;;1.20;99.90;;;;;;5060810;28;20203;-55
2022/01/22 04:33:08;;;;;;;6.53;5.35;;;1.10;99.90;;;;;;5060380;28;20207;-54
2022/01/22 04:35:35;;;;;;;8.23;5.95;;;1.10;99.90;;;;;;5060690;28;20534;-53
2022/01/22 04:38:02;;;;;;;6.20;4.97;;;1.10;99.90;;;;;;5060012;28;20245;-51
2022/01/22 04:40:29;;;;;;;9.52;7.03;;;1.10;99.90;;;;;;5060442;28;20316;-51
2022/01/22 04:42:57;;;;;;;9.75;5.93;;;1.10;99.90;;;;;;5059987;28;20195;-49
2022/01/22 04:45:43;;;;;;;7.45;6.13;;;1.20;99.90;;;;;;5059348;28;20285;-52
2022/01/22 04:48:40;;;;;;;6.38;5.30;;;1.10;99.90;;;;;;5059829;28;20200;-49
2022/01/22 04:56:40;;;;;;;5.80;5.30;;;1.00;99.90;;;;;;5058878;28;20256;-50
2022/01/22 04:59:07;;;;;;;7.25;5.00;;;1.10;99.90;;;;;;5062364;28;20269;-55
2022/01/22 05:01:35;;;;;;;9.85;6.47;;;1.10;99.90;;;;;;5062064;28;20272;-51
2022/01/22 05:04:03;;;;;;;6.97;5.40;;;1.00;99.90;;;;;;5059792;28;20355;-50
2022/01/22 05:06:30;;;;;;;7.05;5.75;;;1.00;99.90;;;;;;5059859;28;20199;-52
2022/01/22 05:08:58;;;;;;;6.57;4.57;;;1.00;99.90;;;;;;5059997;28;20195;-50
2022/01/22 05:11:25;;;;;;;8.15;5.90;;;1.00;99.90;;;;;;5059548;28;20211;-53
2022/01/22 05:13:53;;;;;;;8.50;6.65;;;0.90;99.90;;;;;;5059137;28;20273;-52
2022/01/22 05:16:21;;;;;;;4.75;4.35;;;0.90;99.90;;;;;;5059524;28;20380;-50
2022/01/22 05:18:57;;;;;;;5.70;5.10;;;0.90;99.90;;;;;;5058954;28;20204;-50
2022/01/22 05:21:27;;;;;;;7.57;6.03;;;0.80;99.90;;;;;;5059295;28;20424;-52
2022/01/22 05:23:58;;;;;;;7.97;5.63;;;0.80;99.90;;;;;;5058689;28;20207;-50
2022/01/22 05:37:01;;;;;;;8.25;5.95;;;0.30;99.90;;;;;;5059061;28;20204;-50
2022/01/22 05:39:31;;;;;;;9.00;5.90;;;0.10;99.90;;;;;;5059160;28;20195;-51
2022/01/22 05:42:01;;;;;;;8.77;6.70;;;0.00;99.90;;;;;;5059010;28;20223;-50
2022/01/22 05:44:31;;;;;;;7.50;5.45;;;-0.10;99.90;;;;;;5059150;28;20395;-53
2022/01/22 05:47:03;;;;;;;7.13;5.82;;;-0.10;99.90;;;;;;5058921;28;20196;-52
2022/01/22 05:49:34;;;;;;;9.65;6.95;;;-0.10;99.90;;;;;;5059088;28;20506;-50
2022/01/22 05:52:04;;;;;;;7.57;5.93;;;-0.20;99.90;;;;;;5058998;28;20200;-51
2022/01/22 06:00:05;;;;;;;9.23;7.28;;;-0.40;99.90;;;;;;5062718;28;20203;-53
2022/01/22 06:02:32;;;;;;;10.43;6.80;;;-0.40;99.90;;;;;;5062885;28;20196;-51
2022/01/22 06:05:00;;;;;;;8.55;6.10;;;-0.40;99.90;;;;;;5064221;28;20238;-53
2022/01/22 06:07:27;;;;;;;9.55;6.75;;;-0.20;99.90;;;;;;5063943;28;20196;-48
2022/01/22 06:12:41;;;;;;;10.65;6.22;;;-0.10;99.90;;;;;;5062665;28;20214;-48
2022/01/22 06:15:10;;;;;;;7.75;6.25;;;-0.10;99.90;;;;;;5061965;28;20277;-51
2022/01/22 06:17:37;;;;;;;11.02;7.57;;;-0.20;99.90;;;;;;5062235;28;20199;-51
2022/01/22 06:20:06;;;;;;;9.25;5.90;;;-0.30;99.90;;;;;;5062101;28;20293;-50
2022/01/22 06:22:33;;;;;;;10.93;7.05;;;-0.50;99.90;;;;;;5062060;28;20195;-51
2022/01/22 06:25:01;;;;;;;8.82;6.47;;;-0.60;99.90;;;;;;5062664;28;20402;-49
2022/01/22 06:27:28;;;;;;;8.60;6.50;;;-0.60;99.90;;;;;;5062775;28;20518;-50
2022/01/22 06:29:56;;;;;;;8.75;6.03;;;-0.80;99.90;;;;;;5063444;28;20267;-51
2022/01/22 06:32:24;;;;;;;6.03;5.22;;;-0.80;99.90;;;;;;5063171;28;20200;-54
2022/01/22 06:34:51;;;;;;;7.88;6.65;;;-0.80;99.90;;;;;;5062582;28;20231;-50
2022/01/22 06:37:19;;;;;;;7.63;6.28;;;-0.90;99.90;;;;;;5063039;28;20226;-52
2022/01/22 06:42:33;;;;;;;7.93;6.07;;;-0.90;99.90;;;;;;5063603;28;20227;-51
2022/01/22 06:45:02;;;;;;;9.20;6.40;;;-0.90;99.90;;;;;;5062816;28;20310;-51
2022/01/22 06:47:31;;;;;;;7.53;5.60;;;-0.90;99.90;;;;;;5061787;28;20250;-50
2022/01/22 06:49:58;;;;;;;10.43;6.35;;;-0.90;99.90;;;;;;5061411;28;20529;-51
2022/01/22 06:52:26;;;;;;;8.65;6.47;;;-0.80;99.90;;;;;;5062444;28;20199;-51
2022/01/22 06:54:54;;;;;;;6.97;6.28;;;-0.80;99.90;;;;;;5061710;28;20261;-51
2022/01/22 06:57:21;;;;;;;9.40;7.28;;;-0.80;99.90;;;;;;5061694;28;20237;-50
2022/01/22 06:59:49;;;;;;;10.73;7.22;;;-0.70;99.90;;;;;;5061391;28;20254;-48
2022/01/22 07:02:18;;;;;;;11.25;6.80;;;-0.70;99.90;;;;;;5061430;28;20215;-50
2022/01/22 07:04:45;;;;;;;9.90;6.82;;;-0.70;99.90;;;;;;5061772;28;20323;-53
2022/01/22 07:07:12;;;;;;;10.40;7.03;;;-0.60;99.90;;;;;;5060954;28;20342;-51
2022/01/22 07:09:40;;;;;;;10.00;7.47;;;-0.50;99.90;;;;;;5060149;28;20200;-50
2022/01/22 07:12:08;;;;;;;11.82;7.40;;;-0.40;99.90;;;;;;5061258;28;20517;-51
2022/01/22 07:14:35;;;;;;;9.35;6.57;;;-0.30;99.90;;;;;;5061364;28;20269;-51
2022/01/22 07:17:02;;;;;;;9.05;7.10;;;-0.20;99.90;;;;;;5062192;28;20444;-49
2022/01/22 07:19:37;;;;;;;9.40;5.43;;;-0.30;99.90;;;;;;5062339;28;20199;-51
2022/01/22 07:22:19;;;;;;;11.00;7.05;;;-0.20;99.90;;;;;;5061291;28;20226;-53
2022/01/22 07:24:46;;;;;;;9.70;6.68;;;-0.30;99.90;;;;;;5060709;28;20534;-54
2022/01/22 07:27:13;;;;;;;9.68;6.22;;;-0.30;99.90;;;;;;5060984;28;20234;-49
2022/01/22 07:29:42;;;;;;;10.70;5.63;;;-0.30;99.90;;;;;;5060947;28;20196;-52
2022/01/22 07:32:14;;;;;;;9.70;7.82;;;-0.40;99.90;;;;;;5062125;28;20206;-51
2022/01/22 07:34:42;;;;;;;9.95;5.47;;;-0.40;99.90;;;;;;5060570;28;20550;-49
2022/01/22 07:37:09;;;;;;;8.10;6.60;;;-0.30;99.90;;;;;;5060836;28;20239;-49
2022/01/22 07:39:36;;;;;;;6.10;5.13;;;-0.30;99.90;;;;;;5060293;28;20203;-53
2022/01/22 07:42:04;;;;;;;7.32;5.18;;;-0.30;99.90;;;;;;5059334;28;20283;-49
2022/01/22 07:44:31;;;;;;;5.63;4.95;;;-0.40;99.90;;;;;;5072233;28;20231;-54
2022/01/22 07:46:59;;;;;;;9.82;5.55;;;-0.40;99.90;;;;;;5080103;28;20195;-53
2022/01/22 07:49:26;;;;;;;9.23;6.88;;;-0.40;99.90;;;;;;5080833;28;20347;-50
2022/01/22 07:51:53;;;;;;;7.53;5.20;;;0.00;99.90;;;;;;5080324;28;20379;-50
2022/01/22 07:54:24;;;;;;;8.65;6.03;;;0.50;99.90;;;;;;5080323;28;20219;-50
2022/01/22 07:56:51;;;;;;;7.72;5.65;;;1.20;99.90;;;;;;5080108;28;20203;-49
2022/01/22 07:59:18;;;;;;;5.63;4.50;;;1.50;99.90;;;;;;5080837;28;20203;-48
2022/01/22 08:01:45;;;;;;;5.78;4.30;;;1.80;99.90;;;;;;5080536;28;20272;-49
2022/01/22 08:04:13;;;;;;;7.80;5.05;;;1.70;99.90;;;;;;5080949;28;20413;-50
2022/01/22 08:06:40;;;;;;;6.15;4.78;;;2.00;99.90;;;;;;5080084;28;20378;-51
2022/01/22 08:09:08;;;;;;;5.80;4.80;;;1.70;99.90;;;;;;5080262;28;20198;-51
2022/01/22 08:11:36;;;;;;;7.57;4.75;;;1.30;99.90;;;;;;5080401;28;20198;-49
2022/01/22 08:14:04;;;;;;;7.95;4.97;;;1.10;99.90;;;;;;5079861;28;20218;-48
2022/01/22 08:16:32;;;;;;;11.98;6.68;;;0.90;99.90;;;;;;5079871;28;20198;-51
2022/01/22 08:18:59;;;;;;;8.02;5.15;;;0.70;99.90;;;;;;5079683;28;20214;-48
2022/01/22 08:21:26;;;;;;;5.55;4.40;;;0.50;99.90;;;;;;5079709;28;20600;-51
2022/01/22 08:23:53;;;;;;;9.30;6.78;;;0.40;99.90;;;;;;5081684;28;20223;-47
2022/01/22 08:26:25;;;;;;;6.20;5.15;;;0.40;99.90;;;;;;5081363;28;20517;-48
2022/01/22 08:28:53;;;;;;;12.30;6.68;;;0.50;99.90;;;;;;5080745;28;20564;-51
2022/01/22 08:31:37;;;;;;;6.43;5.45;;;0.50;99.90;;;;;;5068868;28;20274;-48
2022/01/22 08:36:52;;;;;;;8.02;5.20;;;0.70;99.90;;;;;;5039427;28;20207;-50
2022/01/22 08:39:20;;;;;;;4.85;3.97;;;0.60;99.90;;;;;;5040400;28;20204;-48
2022/01/22 08:41:52;;;;;;;8.32;4.85;;;0.60;99.90;;;;;;5039850;28;20224;-49
2022/01/22 08:44:20;;;;;;;6.85;5.75;;;0.60;99.90;;;;;;5039861;28;20263;-50
2022/01/22 08:46:47;;;;;;;5.45;3.90;;;0.60;99.90;;;;;;5040247;28;20204;-51
2022/01/22 08:49:14;;;;;;;7.15;4.75;;;0.60;99.90;;;;;;5040511;28;20196;-51
2022/01/22 08:51:41;;;;;;;11.10;6.32;;;0.50;99.90;;;;;;5040398;28;20208;-49
2022/01/22 08:54:10;;;;;;;7.55;5.55;;;0.70;99.90;;;;;;5043469;28;20219;-47
2022/01/22 08:56:39;;;;;;;5.47;3.67;;;0.90;99.90;;;;;;5050970;28;20217;-46
2022/01/22 08:59:08;;;;;;;4.30;3.83;;;0.90;99.90;;;;;;5042812;28;20208;-49
2022/01/22 09:01:38;;;;;;;5.47;4.00;;;1.00;99.90;;;;;;5051036;28;20227;-49
2022/01/22 09:04:05;;;;;;;4.05;3.70;;;1.20;99.90;;;;;;5048397;28;20216;-48
2022/01/22 09:06:33;;;;;;;4.57;3.47;;;1.30;99.90;;;;;;5050625;28;20432;-48
2022/01/22 09:09:09;;;;;;;5.57;3.95;;;1.30;99.90;;;;;;5043105;28;20499;-48
2022/01/22 09:11:39;;;;;;;4.15;3.55;;;1.20;99.90;;;;;;5041995;28;20214;-51
2022/01/22 09:14:09;;;;;;;4.40;2.72;;;1.20;99.90;;;;;;5042579;28;20247;-50
2022/01/22 09:16:38;;;;;;;4.28;3.47;;;1.00;99.90;;;;;;5046026;28;20215;-49
2022/01/22 09:19:09;;;;;;;3.42;2.95;;;1.10;99.90;;;;;;5043663;28;20610;-50
2022/01/22 09:21:41;;;;;;;2.30;2.05;;;1.20;99.90;;;;;;5046626;28;20295;-51
2022/01/22 09:24:10;;;;;;;4.55;2.53;;;1.00;99.90;;;;;;5056283;28;20268;-49
2022/01/22 09:26:39;;;;;;;3.00;1.98;;;0.80;99.90;;;;;;5070417;28;20628;-48
2022/01/22 09:29:07;;;;;;;3.63;2.78;;;0.70;99.90;;;;;;5079192;28;20506;-48
2022/01/22 09:31:35;;;;;;;4.13;3.03;;;0.50;99.90;;;;;;5081569;28;20199;-49
2022/01/22 09:34:03;;;;;;;4.20;2.55;;;0.60;99.90;;;;;;5083159;28;20227;-51
2022/01/22 09:36:31;;;;;;;1.63;1.52;;;0.60;99.90;;;;;;5083690;28;20520;-48
2022/01/22 09:38:59;;;;;;;6.68;2.15;;;0.50;99.90;;;;;;5083624;28;20199;-49
2022/01/22 09:41:28;;;;;;;2.10;1.92;;;0.60;99.90;;;;;;5068255;28;20243;-48
2022/01/22 09:43:57;;;;;;;3.00;2.20;;;0.70;99.90;;;;;;5074861;28;20219;-47
2022/01/22 09:46:28;;;;;;;5.10;2.30;;;0.60;99.90;;;;;;5084027;28;20260;-48
2022/01/22 09:48:56;;;;;;;4.40;3.17;;;0.60;99.90;;;;;;5082793;28;20191;-50
2022/01/22 09:51:25;;;;;;;5.50;2.13;;;0.60;99.90;;;;;;5067376;28;20258;-49
2022/01/22 09:53:53;;;;;;;3.20;2.80;;;0.60;99.90;;;;;;5074223;28;20453;-50
2022/01/22 09:56:24;;;;;;;4.63;2.30;;;0.60;99.90;;;;;;5075350;28;20199;-47
2022/01/22 09:58:51;;;;;;;2.55;1.65;;;0.50;99.90;;;;;;5042813;28;20204;-49
2022/01/22 10:01:21;;;;;;;3.17;2.17;;;0.50;99.90;;;;;;5059010;28;20203;-47
2022/01/22 10:03:50;;;;;;;2.60;2.40;;;0.60;99.90;;;;;;5076708;28;20238;-48
2022/01/22 10:06:21;;;;;;;6.07;1.75;;;0.50;99.90;;;;;;5085046;28;20211;-50
2022/01/22 10:08:54;;;;;;;5.38;2.00;;;0.60;99.90;;;;;;5073410;28;20219;-50
2022/01/22 10:11:27;;;;;;;2.60;1.58;;;0.60;99.90;;;;;;5050643;28;20488;-50
2022/01/22 10:13:59;;;;;;;3.90;2.35;;;0.50;99.90;;;;;;5047980;28;20222;-48
2022/01/22 10:16:38;;;;;;;3.63;2.25;;;0.60;99.90;;;;;;5069738;28;20204;-49
2022/01/22 10:19:09;;;;;;;4.55;2.35;;;0.50;99.90;;;;;;5080968;28;20209;-50
2022/01/22 10:21:39;;;;;;;1.98;1.83;;;0.50;99.90;;;;;;5067931;28;20274;-50
2022/01/22 10:24:29;;;;;;;5.80;1.90;;;0.60;99.90;;;;;;5051667;28;20208;-48
2022/01/22 10:27:34;;;;;;;3.50;2.30;;;0.50;99.90;;;;;;5059396;28;20232;-49
2022/01/22 10:30:07;;;;;;;3.47;1.50;;;0.50;99.90;;;;;;5069105;28;20196;-47
2022/01/22 10:35:10;;;;;;;2.88;2.10;;;0.50;99.90;;;;;;5061856;28;20235;-49
2022/01/22 10:37:38;;;;;;;5.53;2.08;;;0.60;99.90;;;;;;5061910;28;20203;-48
2022/01/22 10:40:27;;;;;;;3.75;2.22;;;0.70;99.90;;;;;;5061878;28;20207;-50
2022/01/22 10:43:15;;;;;;;3.25;1.95;;;0.90;99.90;;;;;;5061503;28;20262;-51
2022/01/22 10:46:14;;;;;;;3.20;1.50;;;1.00;99.90;;;;;;5061746;28;20261;-53
2022/01/22 10:48:55;;;;;;;3.05;2.45;;;1.00;99.90;;;;;;5061918;28;20196;-47
2022/01/22 10:51:24;;;;;;;3.83;1.73;;;0.90;99.90;;;;;;5061798;28;20195;-50
2022/01/22 10:53:58;;;;;;;3.60;3.05;;;1.00;99.90;;;;;;5062178;28;20229;-48
2022/01/22 10:56:32;;;;;;;5.07;2.47;;;1.20;99.90;;;;;;5061894;28;20536;-50
2022/01/22 10:59:00;;;;;;;4.05;1.70;;;1.30;99.90;;;;;;5061835;28;20241;-50
2022/01/22 11:01:46;;;;;;;2.28;2.08;;;1.50;99.90;;;;;;5061790;28;20203;-49
2022/01/22 11:04:17;;;;;;;3.75;1.95;;;1.50;99.90;;;;;;5061734;28;20215;-47
2022/01/22 11:06:57;;;;;;;3.17;1.80;;;1.30;99.90;;;;;;5062138;28;20196;-49
2022/01/22 11:09:48;;;;;;;6.60;3.55;;;1.00;99.90;;;;;;5057892;28;20187;-48
2022/01/22 11:12:16;;;;;;;4.00;2.85;;;0.90;99.90;;;;;;5062546;28;20216;-51
2022/01/22 11:14:44;;;;;;;3.45;2.47;;;1.10;99.90;;;;;;5065959;28;20231;-49
2022/01/22 11:17:12;;;;;;;2.55;1.83;;;1.00;99.90;;;;;;5081346;28;20206;-49
2022/01/22 11:19:43;;;;;;;2.13;1.95;;;1.10;99.90;;;;;;5080949;28;20199;-48
2022/01/22 11:22:13;;;;;;;1.90;1.70;;;1.20;99.90;;;;;;5080816;28;20242;-54
2022/01/22 11:24:43;;;;;;;3.47;3.10;;;1.30;99.90;;;;;;5080906;28;20229;-49
2022/01/22 11:27:13;;;;;;;2.28;1.60;;;1.20;99.90;;;;;;5080750;28;20199;-49
2022/01/22 11:29:46;;;;;;;2.83;1.85;;;1.00;99.90;;;;;;5084145;28;20195;-50
2022/01/22 11:32:16;;;;;;;3.28;1.75;;;0.70;99.90;;;;;;5083918;28;20218;-47
2022/01/22 11:34:47;;;;;;;4.30;2.30;;;0.60;99.90;;;;;;5043731;28;20219;-50
2022/01/22 11:37:23;;;;;;;3.15;2.58;;;0.70;99.90;;;;;;5042822;28;20222;-50
2022/01/22 11:40:11;;;;;;;1.30;1.10;;;1.10;99.90;;;;;;5047051;28;20402;-49
2022/01/22 11:43:01;;;;;;;2.20;2.00;;;1.60;99.90;;;;;;5044031;28;20218;-49
2022/01/22 11:45:44;;;;;;;2.17;1.98;;;1.80;99.90;;;;;;5048493;28;20278;-47
2022/01/22 11:48:21;;;;;;;5.72;2.65;;;1.80;99.90;;;;;;5046765;28;20204;-50
2022/01/22 11:51:13;;;;;;;3.28;1.90;;;1.90;99.90;;;;;;5045256;28;20503;-49
2022/01/22 11:53:54;;;;;;;1.85;1.58;;;1.70;99.90;;;;;;5044554;28;20215;-49
2022/01/22 11:56:25;;;;;;;1.73;1.60;;;1.60;99.90;;;;;;5048341;28;20208;-51
2022/01/22 11:58:56;;;;;;;4.55;2.30;;;1.50;99.90;;;;;;5044825;28;20396;-50
2022/01/22 12:01:50;;;;;;;3.45;1.58;;;1.30;99.90;;;;;;5046309;28;20207;-50
2022/01/22 12:04:24;;;;;;;3.83;1.58;;;1.30;99.90;;;;;;5061448;28;20228;-51
2022/01/22 12:07:03;;;;;;;1.77;1.67;;;1.10;99.90;;;;;;5045021;28;20223;-52
2022/01/22 12:09:39;;;;;;;2.10;1.80;;;0.90;99.90;;;;;;5046460;28;20242;-51
2022/01/22 12:15:17;;;;;;;4.10;1.65;;;0.70;99.90;;;;;;5042025;28;20219;-51
2022/01/22 12:18:06;;;;;;;2.35;1.60;;;0.70;99.90;;;;;;5041463;28;20246;-50
2022/01/22 12:23:14;;;;;;;3.70;1.65;;;0.90;99.90;;;;;;5041457;28;20561;-47
2022/01/22 12:25:41;;;;;;;2.35;1.20;;;0.90;99.90;;;;;;5045160;28;20428;-53
2022/01/22 12:28:13;;;;;;;1.83;1.42;;;1.00;99.90;;;;;;5044384;28;20614;-50
2022/01/22 12:30:47;;;;;;;4.68;1.77;;;1.00;99.90;;;;;;5049783;28;20406;-50
2022/01/22 12:33:30;;;;;;;2.40;1.98;;;1.00;99.90;;;;;;5046910;28;20427;-50
2022/01/22 12:36:00;;;;;;;1.45;1.35;;;0.90;99.90;;;;;;5046720;28;20556;-50
2022/01/22 12:44:27;;;;;;;1.98;1.80;;;1.40;99.90;;;;;;5051867;28;20231;-48
2022/01/22 12:47:00;;;;;;;2.88;1.73;;;1.70;99.90;;;;;;5066370;28;20194;-48
2022/01/22 12:49:29;;;;;;;1.77;1.67;;;1.70;99.90;;;;;;5080235;28;20429;-50
2022/01/22 12:52:11;;;;;;;3.53;1.77;;;1.70;99.90;;;;;;5078025;28;20198;-51
2022/01/22 12:54:48;;;;;;;1.75;1.50;;;1.90;99.90;;;;;;5079808;28;20264;-50
2022/01/22 12:57:21;;;;;;;3.65;2.00;;;2.00;99.90;;;;;;5079735;28;20262;-51
2022/01/22 12:59:54;;;;;;;1.45;1.35;;;1.80;99.90;;;;;;5079158;28;20232;-51
2022/01/22 13:02:40;;;;;;;3.10;1.40;;;2.00;99.90;;;;;;5079934;28;20223;-51
2022/01/22 13:05:10;;;;;;;1.30;1.10;;;1.90;99.90;;;;;;5082077;28;20336;-53
2022/01/22 13:07:42;;;;;;;1.77;1.35;;;1.80;99.90;;;;;;5084000;28;20194;-51
2022/01/22 13:10:10;;;;;;;3.65;2.20;;;1.60;99.90;;;;;;5071345;28;20195;-48
2022/01/22 13:12:43;;;;;;;2.08;1.88;;;1.50;99.90;;;;;;5080113;28;20209;-50
2022/01/22 13:15:14;;;;;;;1.25;1.15;;;1.30;99.90;;;;;;5084879;28;20434;-52
2022/01/22 13:17:51;;;;;;;1.60;1.50;;;1.30;99.90;;;;;;5066065;28;20200;-49
2022/01/22 13:20:24;;;;;;;3.15;1.58;;;1.40;99.90;;;;;;5060189;28;20190;-49
2022/01/22 13:22:53;;;;;;;3.58;2.03;;;1.50;99.90;;;;;;5066596;28;20282;-52
2022/01/22 13:25:25;;;;;;;2.75;2.55;;;1.60;99.90;;;;;;5069470;28;20526;-49
2022/01/22 13:28:02;;;;;;;1.90;1.70;;;1.70;99.90;;;;;;5067685;28;20199;-49
2022/01/22 13:30:38;;;;;;;5.85;2.00;;;1.60;99.90;;;;;;5080633;28;20202;-51
2022/01/22 13:33:19;;;;;;;1.33;1.23;;;1.50;99.90;;;;;;5083054;28;20266;-53
2022/01/22 13:36:40;;;;;;;2.42;2.00;;;1.50;99.90;;;;;;5050267;28;20200;-49
2022/01/22 13:39:34;;;;;;;3.83;2.38;;;1.50;99.90;;;;;;5048615;28;20269;-51
2022/01/22 13:47:46;;;;;;;4.28;1.65;;;1.60;99.90;;;;;;5050727;28;20208;-54
2022/01/22 13:50:14;;;;;;;3.38;2.00;;;1.90;99.90;;;;;;5050031;28;20283;-51
2022/01/22 13:52:44;;;;;;;1.63;1.40;;;1.70;99.90;;;;;;5052263;28;20195;-47
2022/01/22 13:55:14;;;;;;;4.15;2.00;;;1.60;99.90;;;;;;5049271;28;20280;-49
2022/01/22 13:57:47;;;;;;;4.13;2.40;;;1.60;99.90;;;;;;5052335;28;20203;-49
2022/01/22 14:00:18;;;;;;;3.55;2.03;;;1.60;99.90;;;;;;5049907;28;20254;-48
2022/01/22 14:05:53;;;;;;;3.70;2.35;;;1.60;99.90;;;;;;5062763;28;20537;-45
2022/01/22 14:08:32;;;;;;;2.47;2.28;;;1.50;99.90;;;;;;5063215;28;20249;-50
2022/01/22 14:11:06;;;;;;;4.43;2.40;;;1.20;99.90;;;;;;5064544;28;20293;-52
2022/01/22 14:13:35;;;;;;;4.00;2.10;;;1.10;99.90;;;;;;5054765;28;20232;-53
2022/01/22 14:16:22;;;;;;;3.30;2.70;;;1.10;99.90;;;;;;5076103;28;20207;-51
2022/01/22 14:18:50;;;;;;;3.03;2.13;;;1.10;99.90;;;;;;5042388;28;20211;-53
2022/01/22 14:21:21;;;;;;;5.55;2.40;;;1.10;99.90;;;;;;5042966;28;20203;-50
2022/01/22 14:23:52;;;;;;;1.83;1.73;;;1.00;99.90;;;;;;5043235;28;20224;-50
2022/01/22 14:26:28;;;;;;;4.40;2.13;;;1.00;99.90;;;;;;5043102;28;20197;-49
2022/01/22 14:29:08;;;;;;;3.97;2.28;;;1.00;99.90;;;;;;5042720;28;20368;-49
2022/01/22 14:31:50;;;;;;;1.80;1.70;;;1.00;99.90;;;;;;5042199;28;20486;-48
2022/01/22 14:34:33;;;;;;;4.82;2.08;;;1.00;99.90;;;;;;5045531;28;20497;-49
2022/01/22 14:37:02;;;;;;;2.95;2.22;;;1.00;99.90;;;;;;5052146;28;20212;-49
2022/01/22 14:45:26;;;;;;;3.25;2.42;;;0.90;99.90;;;;;;5081712;28;20268;-51
2022/01/22 14:47:57;;;;;;;2.08;1.98;;;0.80;99.90;;;;;;5081906;28;20559;-47
2022/01/22 14:50:30;;;;;;;2.80;2.50;;;0.60;99.90;;;;;;5081725;28;20195;-48
2022/01/22 14:52:59;;;;;;;2.03;1.92;;;0.60;99.90;;;;;;5082709;28;20199;-47
2022/01/22 14:55:28;;;;;;;3.53;1.77;;;0.50;99.90;;;;;;5080642;28;20227;-54
2022/01/22 14:57:58;;;;;;;4.45;1.30;;;0.40;99.90;;;;;;5081967;28;20206;-47
2022/01/22 15:00:25;;;;;;;3.05;1.63;;;0.40;99.90;;;;;;5083612;28;20431;-51
2022/01/22 15:02:53;;;;;;;1.90;1.45;;;0.30;99.90;;;;;;5084072;28;20215;-51
2022/01/22 15:05:20;;;;;;;2.88;2.15;;;0.30;99.90;;;;;;5081532;28;20261;-48
2022/01/22 15:07:48;;;;;;;2.03;1.60;;;0.40;99.90;;;;;;5080715;28;20194;-49